Time;durP1;ratioP1;P1;durP2;ratioP2;P2;SDS_P1;SDS_P2;PMS_P1;PMS_P2;Temp;Humidity;BMP_temperature;BMP_pressure;BME280_temperature;BME280_humidity;BME280_pressure;Samples;Min_cycle;Max_cycle;Signal;HPM_P1;HPM_P2
2022/12/02 00:00:23;;;;;;;61.00;26.40;;;;;;;1.69;91.96;101973.47;103657;1288;76461;-75
2022/12/02 00:02:50;;;;;;;64.40;26.70;;;;;;;1.70;91.83;101971.71;104261;1294;69368;-75
2022/12/02 00:05:27;;;;;;;63.40;26.70;;;;;;;1.71;91.79;101970.93;104065;1301;72471;-75
2022/12/02 00:07:57;;;;;;;63.90;25.60;;;;;;;1.70;91.90;101967.30;104150;1295;62086;-75
2022/12/02 00:10:27;;;;;;;63.60;28.00;;;;;;;1.71;92.06;101965.67;104174;1302;60134;-75
2022/12/02 00:12:54;;;;;;;66.70;27.70;;;;;;;1.71;91.59;101964.84;103799;1300;74191;-75
2022/12/02 00:15:42;;;;;;;66.30;28.00;;;;;;;1.70;92.00;101961.58;104442;1300;71401;-75
2022/12/02 00:18:14;;;;;;;67.10;28.80;;;;;;;1.68;91.76;101959.23;103936;1297;73543;-75
2022/12/02 00:20:42;;;;;;;70.00;29.90;;;;;;;1.68;91.94;101956.64;103819;1301;62199;-75
2022/12/02 00:23:10;;;;;;;64.50;29.10;;;;;;;1.67;91.95;101951.98;104911;1294;59982;-76
2022/12/02 00:25:36;;;;;;;70.50;29.40;;;;;;;1.68;91.98;101955.77;103362;1301;75422;-75
2022/12/02 00:28:03;;;;;;;63.00;27.60;;;;;;;1.67;91.60;101952.31;104418;1294;62079;-75
2022/12/02 00:30:29;;;;;;;65.00;27.40;;;;;;;1.64;91.70;101946.94;104055;1294;72891;-75
2022/12/02 00:32:56;;;;;;;77.70;30.60;;;;;;;1.59;91.43;101946.63;104058;1294;62665;-75
2022/12/02 00:35:23;;;;;;;70.30;28.80;;;;;;;1.59;91.48;101947.54;103566;1288;62115;-75
2022/12/02 00:37:50;;;;;;;72.80;30.00;;;;;;;1.56;91.50;101947.16;103654;1294;73351;-75
2022/12/02 00:40:17;;;;;;;69.30;28.80;;;;;;;1.55;91.78;101943.89;104175;1294;72025;-75
2022/12/02 00:42:43;;;;;;;71.60;29.60;;;;;;;1.54;91.61;101944.83;104219;1291;71462;-75
2022/12/02 00:47:57;;;;;;;67.40;29.00;;;;;;;1.48;91.55;101938.00;104157;1296;60652;-75
2022/12/02 00:50:23;;;;;;;71.40;29.40;;;;;;;1.47;91.57;101942.80;103999;1300;72937;-75
2022/12/02 00:52:50;;;;;;;64.90;27.90;;;;;;;1.47;91.55;101942.46;104026;1294;70089;-76
2022/12/02 00:55:16;;;;;;;72.20;29.20;;;;;;;1.46;91.68;101943.92;103746;1295;62655;-76
2022/12/02 00:57:43;;;;;;;67.70;28.90;;;;;;;1.46;91.84;101945.66;103510;1295;62208;-75
2022/12/02 01:00:11;;;;;;;64.80;27.50;;;;;;;1.44;91.35;101945.89;104418;1287;62088;-75
2022/12/02 01:02:37;;;;;;;68.60;30.20;;;;;;;1.43;91.66;101945.45;103945;1302;74393;-75
2022/12/02 01:05:05;;;;;;;66.90;29.30;;;;;;;1.42;91.62;101948.11;103991;1288;69594;-75
2022/12/02 01:07:32;;;;;;;70.60;28.60;;;;;;;1.40;91.59;101945.30;103885;1302;71515;-75
2022/12/02 01:09:58;;;;;;;72.50;30.50;;;;;;;1.38;91.61;101943.42;103986;1286;62007;-75
2022/12/02 01:12:25;;;;;;;71.20;28.60;;;;;;;1.39;91.64;101944.60;103937;1290;62187;-75
2022/12/02 01:14:51;;;;;;;80.00;32.80;;;;;;;1.41;91.93;101943.30;103864;1294;62178;-75
2022/12/02 01:17:18;;;;;;;76.70;30.70;;;;;;;1.42;91.93;101944.13;104668;1277;71236;-76
2022/12/02 01:19:45;;;;;;;74.30;30.60;;;;;;;1.42;91.92;101945.31;104798;1294;61975;-75
2022/12/02 01:22:11;;;;;;;80.00;32.70;;;;;;;1.42;91.95;101944.48;105392;1294;60095;-75
2022/12/02 01:24:38;;;;;;;71.30;31.20;;;;;;;1.40;92.13;101942.29;104475;1295;62060;-76
2022/12/02 01:27:04;;;;;;;82.10;34.10;;;;;;;1.40;91.92;101943.17;104117;1287;62180;-76
2022/12/02 01:29:30;;;;;;;81.80;33.40;;;;;;;1.41;92.06;101938.73;104625;1294;62322;-75
2022/12/02 01:31:57;;;;;;;73.80;30.10;;;;;;;1.41;91.88;101942.23;104408;1285;62071;-75
2022/12/02 01:34:23;;;;;;;79.60;33.30;;;;;;;1.40;91.80;101941.95;104076;1301;62308;-75
2022/12/02 01:36:50;;;;;;;81.70;32.90;;;;;;;1.41;91.84;101943.48;104133;1285;62106;-75
2022/12/02 01:39:16;;;;;;;82.10;33.30;;;;;;;1.42;92.01;101941.85;104020;1303;62011;-75
2022/12/02 01:41:43;;;;;;;76.60;32.00;;;;;;;1.44;92.06;101939.66;104486;1294;62185;-75
2022/12/02 01:44:09;;;;;;;79.00;32.30;;;;;;;1.41;91.62;101937.89;104134;1287;62212;-75
2022/12/02 01:46:37;;;;;;;84.30;33.70;;;;;;;1.39;91.90;101935.41;104027;1286;62148;-75
2022/12/02 01:49:03;;;;;;;72.70;32.00;;;;;;;1.39;91.95;101932.77;104105;1286;61962;-76
2022/12/02 01:51:30;;;;;;;78.70;31.70;;;;;;;1.38;91.74;101934.58;104009;1292;73986;-76
2022/12/02 01:53:56;;;;;;;75.60;30.80;;;;;;;1.36;91.89;101931.00;104002;1294;62108;-75
2022/12/02 01:56:26;;;;;;;79.00;33.90;;;;;;;1.35;91.78;101932.11;103763;1294;62062;-75
2022/12/02 01:58:53;;;;;;;73.80;30.90;;;;;;;1.34;92.02;101933.75;104519;1290;63299;-75
2022/12/02 02:01:28;;;;;;;69.30;31.30;;;;;;;1.32;91.64;101930.54;104238;1295;62115;-75
2022/12/02 02:03:54;;;;;;;79.30;32.90;;;;;;;1.30;91.75;101928.40;104148;1295;75604;-75
2022/12/02 02:06:24;;;;;;;77.30;33.40;;;;;;;1.29;91.67;101926.70;103635;1301;62166;-75
2022/12/02 02:08:51;;;;;;;76.90;32.90;;;;;;;1.27;91.90;101926.98;104302;1294;72752;-75
2022/12/02 02:11:18;;;;;;;74.70;32.70;;;;;;;1.24;91.53;101924.02;104032;1293;61009;-75
2022/12/02 02:13:45;;;;;;;74.70;32.50;;;;;;;1.22;91.78;101926.89;104192;1295;60236;-75
2022/12/02 02:16:13;;;;;;;78.60;32.30;;;;;;;1.22;91.81;101924.14;104272;1293;74296;-75
2022/12/02 02:18:40;;;;;;;80.50;34.60;;;;;;;1.22;91.71;101925.33;104475;1295;69815;-75
2022/12/02 02:21:11;;;;;;;81.50;33.80;;;;;;;1.22;91.84;101921.99;103764;1294;70155;-75
2022/12/02 02:23:38;;;;;;;81.60;33.80;;;;;;;1.23;91.83;101924.05;103648;1300;62061;-75
2022/12/02 02:26:04;;;;;;;81.50;33.30;;;;;;;1.24;91.74;101920.55;103793;1294;61834;-75
2022/12/02 02:28:32;;;;;;;75.30;33.80;;;;;;;1.25;91.79;101917.00;104237;1299;75240;-75
2022/12/02 02:30:59;;;;;;;83.80;34.50;;;;;;;1.28;91.70;101911.80;103772;1294;71845;-75
2022/12/02 02:33:30;;;;;;;79.60;31.80;;;;;;;1.28;91.75;101909.34;104201;1302;71206;-75
2022/12/02 02:35:57;;;;;;;85.70;34.10;;;;;;;1.27;91.63;101910.24;104207;1300;62074;-75
2022/12/02 02:38:26;;;;;;;80.20;32.80;;;;;;;1.26;91.77;101908.08;104528;1301;60036;-75
2022/12/02 02:40:54;;;;;;;80.40;33.30;;;;;;;1.25;91.80;101908.12;103972;1303;75590;-75
2022/12/02 02:43:23;;;;;;;78.50;33.10;;;;;;;1.26;91.53;101910.52;103860;1303;69576;-75
2022/12/02 02:45:52;;;;;;;73.70;31.00;;;;;;;1.24;91.66;101903.45;103652;1294;72557;-75
2022/12/02 02:48:20;;;;;;;71.30;31.40;;;;;;;1.23;91.73;101904.20;103954;1294;59783;-75
2022/12/02 02:50:47;;;;;;;78.50;32.80;;;;;;;1.24;91.77;101903.65;104433;1294;61987;-75
2022/12/02 02:53:16;;;;;;;82.80;33.50;;;;;;;1.24;91.70;101902.75;104156;1295;73984;-75
2022/12/02 02:55:42;;;;;;;72.50;31.40;;;;;;;1.23;91.39;101902.79;104632;1291;69588;-76
2022/12/02 02:58:22;;;;;;;71.80;32.20;;;;;;;1.21;91.62;101901.48;103818;1302;70419;-75
2022/12/02 03:01:00;;;;;;;73.50;33.90;;;;;;;1.22;91.67;101897.98;104313;1298;62195;-75
2022/12/02 03:03:34;;;;;;;77.20;33.70;;;;;;;1.25;91.88;101899.54;103837;1285;62555;-75
2022/12/02 03:06:04;;;;;;;75.10;32.70;;;;;;;1.26;91.91;101893.79;104172;1292;73935;-75
2022/12/02 03:08:31;;;;;;;78.50;32.30;;;;;;;1.26;91.71;101896.04;104624;1278;70361;-76
2022/12/02 03:11:00;;;;;;;79.70;33.10;;;;;;;1.28;91.69;101893.87;104184;1295;72468;-75
2022/12/02 03:13:29;;;;;;;80.40;34.50;;;;;;;1.28;91.82;101887.91;104313;1297;62204;-75
2022/12/02 03:15:56;;;;;;;83.10;34.30;;;;;;;1.29;91.88;101888.38;103852;1295;62052;-75
2022/12/02 03:18:23;;;;;;;79.10;32.70;;;;;;;1.29;91.85;101884.70;104054;1301;75227;-75
2022/12/02 03:20:49;;;;;;;75.70;32.40;;;;;;;1.31;91.81;101883.75;103888;1295;70580;-76
2022/12/02 03:23:16;;;;;;;77.00;33.10;;;;;;;1.32;91.93;101882.25;103465;1301;72628;-75
2022/12/02 03:25:43;;;;;;;76.80;32.70;;;;;;;1.32;91.87;101882.77;104455;1294;61954;-75
2022/12/02 03:28:10;;;;;;;72.10;31.30;;;;;;;1.33;91.93;101884.65;104019;1293;59823;-75
2022/12/02 03:30:38;;;;;;;78.10;33.60;;;;;;;1.31;92.02;101884.05;104211;1294;75570;-76
2022/12/02 03:33:05;;;;;;;77.10;32.10;;;;;;;1.33;91.94;101883.45;104059;1294;70007;-75
2022/12/02 03:35:31;;;;;;;71.50;30.50;;;;;;;1.32;92.13;101883.31;103940;1295;71229;-75
2022/12/02 03:37:58;;;;;;;73.60;30.50;;;;;;;1.29;91.70;101882.48;103846;1291;62124;-75
2022/12/02 03:40:25;;;;;;;69.70;30.40;;;;;;;1.23;91.80;101883.44;104189;1295;60245;-75
2022/12/02 03:42:52;;;;;;;76.20;32.90;;;;;;;1.20;91.76;101883.08;103949;1302;75262;-75
2022/12/02 03:45:19;;;;;;;77.20;30.60;;;;;;;1.20;92.22;101880.81;104579;1300;71039;-75
2022/12/02 03:47:45;;;;;;;72.90;31.70;;;;;;;1.18;92.22;101878.65;103438;1298;61930;-75
2022/12/02 03:50:12;;;;;;;73.70;31.50;;;;;;;1.16;92.32;101875.63;104283;1292;62451;-75
2022/12/02 03:52:40;;;;;;;71.50;31.80;;;;;;;1.14;92.34;101877.67;104328;1295;62085;-75
2022/12/02 03:55:08;;;;;;;71.10;30.00;;;;;;;1.12;92.51;101874.81;103304;1297;75195;-74
2022/12/02 03:57:34;;;;;;;70.40;30.50;;;;;;;1.12;92.42;101871.17;103393;1294;70926;-74
2022/12/02 04:00:01;;;;;;;80.20;33.10;;;;;;;1.13;92.33;101868.49;103845;1301;71608;-75
2022/12/02 04:02:27;;;;;;;67.20;31.40;;;;;;;1.16;92.48;101867.30;104167;1297;63423;-75
2022/12/02 04:04:54;;;;;;;72.50;32.20;;;;;;;1.17;92.64;101864.80;103995;1285;62185;-75
2022/12/02 04:07:20;;;;;;;69.80;31.10;;;;;;;1.18;92.54;101863.88;103677;1301;62185;-75
2022/12/02 04:09:47;;;;;;;73.60;32.90;;;;;;;1.18;92.43;101865.94;104019;1295;62166;-76
2022/12/02 04:12:13;;;;;;;72.50;32.40;;;;;;;1.19;92.43;101865.39;104292;1292;62191;-76
2022/12/02 04:14:39;;;;;;;73.00;32.60;;;;;;;1.19;92.41;101867.98;103924;1292;62671;-75
2022/12/02 04:17:06;;;;;;;69.80;30.80;;;;;;;1.20;92.28;101866.20;104129;1297;63366;-75
2022/12/02 04:19:34;;;;;;;74.00;31.80;;;;;;;1.21;92.45;101860.70;103676;1294;75652;-75
2022/12/02 04:22:00;;;;;;;74.40;32.30;;;;;;;1.24;92.36;101857.29;104166;1298;62166;-74
2022/12/02 04:24:27;;;;;;;69.80;32.10;;;;;;;1.24;92.47;101853.61;104029;1292;62129;-76
2022/12/02 04:26:54;;;;;;;72.00;32.10;;;;;;;1.25;92.22;101848.19;104122;1298;62022;-76
2022/12/02 04:29:21;;;;;;;71.70;30.50;;;;;;;1.23;92.38;101846.70;103589;1295;63618;-75
2022/12/02 04:31:47;;;;;;;78.30;32.30;;;;;;;1.21;92.03;101845.40;104197;1295;62248;-75
2022/12/02 04:34:13;;;;;;;69.50;31.60;;;;;;;1.21;92.15;101843.15;103906;1284;62131;-76
2022/12/02 04:36:40;;;;;;;70.50;32.20;;;;;;;1.21;92.15;101842.08;103926;1285;62134;-76
2022/12/02 04:39:06;;;;;;;70.90;32.30;;;;;;;1.21;92.26;101840.88;103870;1300;62209;-75
2022/12/02 04:41:32;;;;;;;70.10;31.60;;;;;;;1.21;92.26;101836.18;104334;1294;59641;-75
2022/12/02 04:43:59;;;;;;;67.00;32.20;;;;;;;1.22;92.27;101835.75;104241;1284;60882;-75
2022/12/02 04:46:25;;;;;;;70.20;32.40;;;;;;;1.24;92.36;101838.42;103617;1294;62185;-76
2022/12/02 04:48:52;;;;;;;73.80;32.60;;;;;;;1.26;92.16;101840.62;104143;1301;60998;-76
2022/12/02 04:51:18;;;;;;;66.40;31.40;;;;;;;1.25;92.31;101833.03;104174;1295;60861;-75
2022/12/02 04:53:45;;;;;;;67.10;31.70;;;;;;;1.24;92.04;101837.74;103681;1288;62108;-74
2022/12/02 04:56:11;;;;;;;67.80;31.00;;;;;;;1.23;92.02;101839.05;103926;1294;62131;-75
2022/12/02 04:58:37;;;;;;;69.20;31.60;;;;;;;1.21;91.94;101836.50;104013;1294;60863;-75
2022/12/02 05:01:04;;;;;;;70.20;31.10;;;;;;;1.21;92.26;101833.01;104911;1287;62019;-75
2022/12/02 05:03:30;;;;;;;65.20;30.20;;;;;;;1.22;92.02;101833.83;103784;1293;60291;-76
2022/12/02 05:05:57;;;;;;;67.10;31.10;;;;;;;1.24;92.07;101834.64;104796;1295;59985;-75
2022/12/02 05:08:23;;;;;;;64.50;31.20;;;;;;;1.26;92.16;101834.49;104321;1292;61981;-75
2022/12/02 05:10:50;;;;;;;67.00;32.40;;;;;;;1.27;92.10;101831.32;104534;1295;60081;-75
2022/12/02 05:13:16;;;;;;;66.90;31.70;;;;;;;1.27;92.13;101826.95;104438;1301;62157;-75
2022/12/02 05:15:42;;;;;;;66.60;31.70;;;;;;;1.29;92.10;101826.86;104211;1302;62165;-75
2022/12/02 05:18:10;;;;;;;63.50;30.50;;;;;;;1.31;92.15;101827.41;104975;1295;62094;-75
2022/12/02 05:20:36;;;;;;;64.20;31.10;;;;;;;1.32;92.04;101830.34;104686;1295;59977;-75
2022/12/02 05:23:03;;;;;;;62.20;29.80;;;;;;;1.32;92.00;101824.91;104577;1293;60095;-75
2022/12/02 05:25:29;;;;;;;67.90;32.00;;;;;;;1.31;91.98;101824.61;105572;1293;60240;-75
2022/12/02 05:27:55;;;;;;;65.50;31.80;;;;;;;1.32;92.14;101825.09;104899;1293;61714;-74
2022/12/02 05:30:22;;;;;;;61.40;30.50;;;;;;;1.33;91.86;101827.30;104142;1292;62131;-75
2022/12/02 05:32:48;;;;;;;63.70;29.20;;;;;;;1.34;91.86;101824.84;104840;1285;62094;-76
2022/12/02 05:35:15;;;;;;;62.20;30.50;;;;;;;1.35;92.02;101826.35;105004;1294;62128;-75
2022/12/02 05:37:41;;;;;;;63.50;31.10;;;;;;;1.38;92.03;101828.77;103506;1297;62220;-75
2022/12/02 05:40:09;;;;;;;65.40;30.80;;;;;;;1.42;92.34;101827.85;104435;1298;61951;-75
2022/12/02 05:42:35;;;;;;;57.60;27.90;;;;;;;1.46;91.86;101827.80;104267;1295;63030;-75
2022/12/02 05:45:12;;;;;;;61.40;30.40;;;;;;;1.48;91.75;101825.98;103620;1304;62236;-75
2022/12/02 05:47:39;;;;;;;59.40;29.00;;;;;;;1.48;91.67;101824.38;103736;1301;69585;-75
2022/12/02 05:50:10;;;;;;;58.40;27.70;;;;;;;1.46;91.36;101819.59;103675;1288;62125;-75
2022/12/02 05:52:37;;;;;;;62.00;30.30;;;;;;;1.45;91.41;101820.21;104280;1295;61679;-76
2022/12/02 05:55:11;;;;;;;60.40;29.00;;;;;;;1.46;91.50;101816.98;104045;1297;62076;-75
2022/12/02 05:57:38;;;;;;;60.60;30.00;;;;;;;1.48;91.55;101822.81;103785;1295;73105;-75
2022/12/02 06:00:07;;;;;;;60.60;29.90;;;;;;;1.49;91.37;101825.39;104680;1295;70570;-75
2022/12/02 06:02:51;;;;;;;67.10;30.60;;;;;;;1.49;91.42;101830.27;104134;1295;70998;-75
2022/12/02 06:05:25;;;;;;;60.10;28.40;;;;;;;1.45;91.07;101833.25;104001;1296;61957;-75
2022/12/02 06:07:58;;;;;;;58.70;28.50;;;;;;;1.45;91.39;101834.64;103874;1294;62070;-74
2022/12/02 06:10:28;;;;;;;57.50;28.50;;;;;;;1.45;91.29;101834.64;104161;1294;74209;-74
2022/12/02 06:12:59;;;;;;;57.00;29.10;;;;;;;1.44;91.23;101839.92;103781;1300;70975;-73
2022/12/02 06:15:35;;;;;;;58.60;29.40;;;;;;;1.44;91.50;101839.40;103873;1300;72293;-73
2022/12/02 06:18:10;;;;;;;59.20;29.40;;;;;;;1.45;91.28;101836.26;104216;1295;62086;-73
2022/12/02 06:20:36;;;;;;;61.60;29.30;;;;;;;1.45;91.43;101837.25;104217;1295;62133;-74
2022/12/02 06:23:02;;;;;;;57.70;29.40;;;;;;;1.47;91.45;101832.77;103755;1301;62061;-73
2022/12/02 06:25:30;;;;;;;59.80;29.60;;;;;;;1.49;91.12;101837.58;103610;1296;60315;-74
2022/12/02 06:28:31;;;;;;;56.30;29.10;;;;;;;1.49;91.02;101838.61;104378;1292;72540;-74
2022/12/02 06:31:00;;;;;;;57.00;29.80;;;;;;;1.47;91.15;101836.80;103412;1302;232750;-75
2022/12/02 06:33:32;;;;;;;60.60;30.30;;;;;;;1.44;91.09;101838.19;104786;1295;62131;-74
2022/12/02 06:36:02;;;;;;;55.20;28.50;;;;;;;1.44;91.22;101839.21;103955;1279;75876;-74
2022/12/02 06:38:34;;;;;;;56.80;27.20;;;;;;;1.46;91.41;101837.56;104199;1297;70408;-74
2022/12/02 06:41:22;;;;;;;62.70;30.70;;;;;;;1.46;91.19;101838.94;103351;1302;72897;-73
2022/12/02 06:46:35;;;;;;;60.20;29.90;;;;;;;1.46;91.16;101840.52;103725;1286;62181;-74
2022/12/02 06:49:21;;;;;;;59.80;31.10;;;;;;;1.44;91.12;101837.33;103135;1295;75975;-73
2022/12/02 06:51:54;;;;;;;61.30;30.50;;;;;;;1.43;91.27;101836.33;103283;1295;68597;-74
2022/12/02 06:54:25;;;;;;;59.40;30.20;;;;;;;1.44;91.18;101837.33;103997;1294;71160;-75
2022/12/02 06:56:51;;;;;;;55.10;28.40;;;;;;;1.43;91.43;101837.70;104209;1294;61296;-74
2022/12/02 06:59:22;;;;;;;55.70;28.80;;;;;;;1.44;91.40;101838.17;104097;1292;62207;-75
2022/12/02 07:01:54;;;;;;;60.10;29.80;;;;;;;1.43;91.23;101842.07;103547;1302;73959;-75
2022/12/02 07:04:45;;;;;;;55.90;27.60;;;;;;;1.42;91.42;101843.17;103845;1301;71265;-75
2022/12/02 07:07:16;;;;;;;58.40;29.30;;;;;;;1.40;91.47;101845.20;102913;1300;71565;-73
2022/12/02 07:09:46;;;;;;;53.90;27.90;;;;;;;1.38;91.39;101852.98;103574;1295;62109;-74
2022/12/02 07:12:22;;;;;;;56.60;28.50;;;;;;;1.37;91.55;101850.58;104158;1300;62133;-74
2022/12/02 07:14:57;;;;;;;55.00;27.80;;;;;;;1.36;91.47;101846.30;103767;1301;75281;-75
2022/12/02 07:17:23;;;;;;;54.70;27.60;;;;;;;1.34;91.48;101842.06;103481;1292;69401;-74
2022/12/02 07:20:00;;;;;;;54.50;26.00;;;;;;;1.32;91.31;101845.48;103073;1287;62217;-74
2022/12/02 07:22:39;;;;;;;48.70;24.80;;;;;;;1.31;91.58;101840.84;103306;1301;62308;-73
2022/12/02 07:25:08;;;;;;;48.90;25.70;;;;;;;1.28;91.40;101842.39;103369;1293;62121;-73
2022/12/02 07:27:38;;;;;;;47.50;24.10;;;;;;;1.27;91.25;101844.20;103520;1295;75506;-73
2022/12/02 07:30:30;;;;;;;45.00;24.20;;;;;;;1.26;91.30;101843.23;103099;1300;70867;-74
2022/12/02 07:32:57;;;;;;;46.40;24.40;;;;;;;1.24;91.21;101843.54;104294;1291;71735;-75
2022/12/02 07:35:24;;;;;;;44.50;24.20;;;;;;;1.22;91.35;101850.20;103155;1286;62661;-75
2022/12/02 07:37:51;;;;;;;43.70;24.10;;;;;;;1.23;91.29;101849.81;103544;1295;62105;-74
2022/12/02 07:40:19;;;;;;;44.30;24.30;;;;;;;1.23;91.29;101850.02;103244;1302;73938;-74
2022/12/02 07:42:46;;;;;;;43.20;23.00;;;;;;;1.21;91.26;101851.66;103649;1301;70831;-74
2022/12/02 07:45:15;;;;;;;45.00;23.20;;;;;;;1.20;91.55;101851.71;103426;1294;72699;-75
2022/12/02 07:47:42;;;;;;;46.20;23.70;;;;;;;1.19;91.50;101849.84;104370;1293;62054;-74
2022/12/02 07:50:10;;;;;;;45.40;23.80;;;;;;;1.20;91.41;101856.27;103846;1301;62130;-74
2022/12/02 07:52:36;;;;;;;43.50;22.80;;;;;;;1.21;91.48;101855.48;103053;1298;73896;-74
2022/12/02 07:55:03;;;;;;;43.10;23.60;;;;;;;1.21;91.42;101858.82;103424;1291;62306;-74
2022/12/02 07:57:29;;;;;;;44.20;23.30;;;;;;;1.21;91.25;101854.98;103201;1287;71228;-74
2022/12/02 08:00:02;;;;;;;43.70;23.90;;;;;;;1.23;91.59;101847.41;103882;1296;62486;-74
2022/12/02 08:02:29;;;;;;;43.80;23.90;;;;;;;1.25;91.63;101847.66;103456;1292;62653;-74
2022/12/02 08:04:55;;;;;;;41.90;23.10;;;;;;;1.28;91.38;101849.22;104361;1295;61978;-74
2022/12/02 08:07:21;;;;;;;44.10;23.30;;;;;;;1.29;91.43;101851.61;103027;1301;62709;-74
2022/12/02 08:09:48;;;;;;;42.80;23.70;;;;;;;1.30;91.49;101848.41;103415;1301;62066;-74
2022/12/02 08:12:14;;;;;;;42.30;22.20;;;;;;;1.31;91.44;101851.11;103150;1298;62202;-73
2022/12/02 08:14:41;;;;;;;41.60;23.10;;;;;;;1.32;91.44;101852.96;103273;1306;62239;-75
2022/12/02 08:17:07;;;;;;;45.40;25.20;;;;;;;1.33;91.62;101851.15;103447;1300;63816;-74
2022/12/02 08:19:33;;;;;;;48.20;24.60;;;;;;;1.36;91.49;101854.83;103414;1298;62189;-73
2022/12/02 08:22:00;;;;;;;42.60;23.50;;;;;;;1.38;91.63;101852.98;103131;1302;62983;-74
2022/12/02 08:24:26;;;;;;;43.10;23.90;;;;;;;1.39;91.38;101855.05;104169;1298;60618;-75
2022/12/02 08:26:53;;;;;;;42.10;22.30;;;;;;;1.41;91.58;101855.46;105419;1294;59625;-75
2022/12/02 08:29:19;;;;;;;44.60;24.00;;;;;;;1.42;91.35;101849.44;104339;1292;62203;-74
2022/12/02 08:31:45;;;;;;;41.80;22.60;;;;;;;1.45;91.44;101853.46;103601;1300;62200;-74
2022/12/02 08:34:12;;;;;;;43.00;23.60;;;;;;;1.49;91.52;101851.88;104554;1294;59901;-75
2022/12/02 08:36:38;;;;;;;44.10;24.40;;;;;;;1.52;91.69;101855.35;103293;1293;62588;-74
2022/12/02 08:39:05;;;;;;;45.90;24.70;;;;;;;1.54;91.22;101853.83;103601;1294;62121;-74
2022/12/02 08:41:36;;;;;;;43.20;24.60;;;;;;;1.54;91.21;101849.98;103492;1298;62386;-74
2022/12/02 08:44:03;;;;;;;44.80;23.70;;;;;;;1.55;91.33;101854.85;103477;1294;70178;-73
2022/12/02 08:46:30;;;;;;;44.00;24.20;;;;;;;1.54;91.19;101853.83;103912;1301;71088;-74
2022/12/02 08:48:57;;;;;;;44.10;23.80;;;;;;;1.54;91.04;101853.13;103524;1294;62273;-74
2022/12/02 08:51:24;;;;;;;44.30;24.90;;;;;;;1.52;90.87;101854.63;103843;1287;62755;-74
2022/12/02 08:53:50;;;;;;;48.30;25.70;;;;;;;1.51;91.22;101854.54;103872;1298;62567;-74
2022/12/02 08:56:17;;;;;;;46.90;25.50;;;;;;;1.49;91.38;101857.77;103277;1301;70895;-74
2022/12/02 08:58:43;;;;;;;47.00;25.00;;;;;;;1.50;91.25;101852.68;103495;1298;61955;-74
2022/12/02 09:01:10;;;;;;;42.40;22.90;;;;;;;1.49;91.29;101854.67;104103;1291;62303;-75
2022/12/02 09:03:36;;;;;;;50.90;27.70;;;;;;;1.47;91.25;101858.98;103107;1293;61987;-74
2022/12/02 09:06:03;;;;;;;46.90;25.90;;;;;;;1.49;91.20;101855.89;103798;1302;60783;-73
2022/12/02 09:08:29;;;;;;;44.00;24.10;;;;;;;1.48;91.37;101857.66;103510;1294;62217;-74
2022/12/02 09:10:56;;;;;;;50.30;26.90;;;;;;;1.46;91.21;101859.31;103970;1290;62080;-75
2022/12/02 09:13:22;;;;;;;49.00;26.00;;;;;;;1.49;91.24;101864.25;103295;1295;60069;-74
2022/12/02 09:15:49;;;;;;;48.60;26.60;;;;;;;1.50;91.39;101864.20;103315;1298;62579;-74
2022/12/02 09:18:15;;;;;;;48.20;26.60;;;;;;;1.53;91.43;101861.56;103638;1301;62637;-73
2022/12/02 09:20:42;;;;;;;49.20;25.80;;;;;;;1.57;91.81;101864.82;103815;1301;62015;-73
2022/12/02 09:23:08;;;;;;;47.90;25.70;;;;;;;1.61;91.83;101862.65;104233;1301;62201;-74
2022/12/02 09:25:35;;;;;;;47.60;26.50;;;;;;;1.65;91.45;101866.13;102940;1301;62278;-73
2022/12/02 09:28:01;;;;;;;47.10;24.90;;;;;;;1.66;91.27;101868.66;103138;1303;62310;-73
2022/12/02 09:30:28;;;;;;;43.20;24.60;;;;;;;1.68;91.44;101868.73;103090;1302;62605;-73
2022/12/02 09:32:54;;;;;;;45.80;25.20;;;;;;;1.68;91.31;101866.98;103223;1300;62689;-74
2022/12/02 09:35:20;;;;;;;43.70;23.30;;;;;;;1.69;91.14;101867.11;103396;1305;59854;-74
2022/12/02 09:37:47;;;;;;;48.40;25.70;;;;;;;1.70;91.39;101866.73;103325;1302;62185;-73
2022/12/02 09:40:14;;;;;;;45.40;24.40;;;;;;;1.74;91.24;101866.67;104077;1293;60656;-74
2022/12/02 09:42:41;;;;;;;46.00;25.20;;;;;;;1.77;91.30;101866.14;103055;1300;62346;-73
2022/12/02 09:45:08;;;;;;;46.40;25.10;;;;;;;1.79;91.47;101863.19;103352;1295;62130;-74
2022/12/02 09:47:34;;;;;;;47.30;26.30;;;;;;;1.81;91.24;101863.97;103316;1299;72439;-76
2022/12/02 09:50:01;;;;;;;44.20;25.60;;;;;;;1.84;91.46;101861.37;103161;1297;62404;-73
2022/12/02 09:52:28;;;;;;;46.80;25.20;;;;;;;1.87;91.21;101859.09;103313;1302;62126;-74
2022/12/02 09:54:58;;;;;;;46.10;24.10;;;;;;;1.88;91.09;101855.70;103972;1301;74035;-73
2022/12/02 09:57:30;;;;;;;45.10;24.10;;;;;;;1.89;90.89;101858.63;103784;1302;71205;-75
2022/12/02 10:00:15;;;;;;;44.60;24.60;;;;;;;1.88;90.74;101852.92;103229;1306;72952;-73
2022/12/02 10:02:48;;;;;;;44.30;24.40;;;;;;;1.87;90.72;101854.03;103305;1302;60939;-76
2022/12/02 10:05:17;;;;;;;44.60;24.30;;;;;;;1.88;91.19;101851.54;103647;1296;62089;-75
2022/12/02 10:07:45;;;;;;;42.30;24.20;;;;;;;1.88;91.00;101852.60;103107;1293;73506;-75
2022/12/02 10:10:16;;;;;;;40.30;22.90;;;;;;;1.86;90.72;101858.27;103432;1300;69915;-73
2022/12/02 10:12:43;;;;;;;42.00;22.80;;;;;;;1.87;90.79;101855.61;103640;1299;73846;-74
2022/12/02 10:15:21;;;;;;;39.70;22.10;;;;;;;1.87;90.59;101855.06;103649;1294;62265;-74
2022/12/02 10:17:48;;;;;;;41.50;23.50;;;;;;;1.87;90.64;101854.01;103368;1293;62223;-74
2022/12/02 10:20:26;;;;;;;42.60;23.80;;;;;;;1.89;90.77;101853.92;103366;1302;74419;-73
2022/12/02 10:23:14;;;;;;;43.40;23.30;;;;;;;1.92;90.70;101851.62;103517;1295;71313;-73
2022/12/02 10:25:44;;;;;;;42.80;23.70;;;;;;;1.95;90.91;101849.87;103108;1300;74358;-73
2022/12/02 10:28:29;;;;;;;38.60;22.20;;;;;;;1.98;90.63;101846.58;103562;1301;62517;-74
2022/12/02 10:31:07;;;;;;;39.70;22.60;;;;;;;1.98;90.13;101846.42;103754;1302;62517;-73
2022/12/02 10:33:37;;;;;;;39.20;22.60;;;;;;;1.99;90.18;101841.98;103446;1301;74174;-73
2022/12/02 10:36:04;;;;;;;36.90;20.80;;;;;;;2.00;90.16;101842.25;103447;1308;71407;-74
2022/12/02 10:38:42;;;;;;;40.20;24.30;;;;;;;2.00;89.89;101843.48;103384;1296;72639;-73
2022/12/02 10:41:14;;;;;;;42.20;23.40;;;;;;;2.04;89.79;101840.45;103256;1293;62137;-74
2022/12/02 10:43:42;;;;;;;38.20;22.40;;;;;;;2.10;89.66;101839.08;103190;1292;62096;-74
2022/12/02 10:46:13;;;;;;;39.10;23.40;;;;;;;2.11;89.23;101839.39;103781;1294;75266;-74
2022/12/02 10:48:41;;;;;;;41.50;22.70;;;;;;;2.12;89.27;101838.25;103182;1294;69921;-73
2022/12/02 10:51:17;;;;;;;41.70;24.00;;;;;;;2.17;89.41;101838.11;103386;1302;70335;-73
2022/12/02 10:53:56;;;;;;;42.50;23.30;;;;;;;2.25;89.43;101837.81;103749;1294;62079;-73
2022/12/02 10:56:22;;;;;;;38.80;23.40;;;;;;;2.28;88.77;101840.42;103568;1298;62005;-73
2022/12/02 10:58:50;;;;;;;37.30;21.80;;;;;;;2.29;88.32;101842.78;103662;1301;75353;-73
2022/12/02 11:01:19;;;;;;;37.20;21.70;;;;;;;2.28;87.83;101839.55;103890;1301;70007;-74
2022/12/02 11:03:46;;;;;;;38.40;22.90;;;;;;;2.24;87.70;101839.08;103514;1288;72712;-74
2022/12/02 11:06:18;;;;;;;33.70;20.70;;;;;;;2.23;87.75;101837.38;103413;1301;62300;-74
2022/12/02 11:08:47;;;;;;;34.90;21.00;;;;;;;2.20;87.01;101837.59;103576;1292;62259;-74
2022/12/02 11:11:37;;;;;;;34.50;20.80;;;;;;;2.17;86.95;101834.10;103532;1298;75269;-73
2022/12/02 11:14:07;;;;;;;35.40;22.20;;;;;;;2.14;87.02;101836.20;103606;1301;71107;-73
2022/12/02 11:16:33;;;;;;;38.40;22.50;;;;;;;2.14;86.67;101831.52;103474;1296;72062;-73
2022/12/02 11:19:37;;;;;;;36.00;21.70;;;;;;;2.13;86.65;101830.89;103885;1300;62223;-74
2022/12/02 11:22:42;;;;;;;35.20;22.50;;;;;;;2.14;86.90;101826.45;103324;1300;62538;-73